Time;durP1;ratioP1;P1;durP2;ratioP2;P2;SDS_P1;SDS_P2;PMS_P1;PMS_P2;Temp;Humidity;BMP_temperature;BMP_pressure;BME280_temperature;BME280_humidity;BME280_pressure;Samples;Min_cycle;Max_cycle;Signal;HPM_P1;HPM_P2
2021/09/15 00:02:00;;;;;;;15.32;12.50;;;;;;;;;;5054421;28;20053;-67
2021/09/15 00:04:27;;;;;;;15.85;12.88;;;;;;;;;;5053874;28;20055;-67
2021/09/15 00:06:54;;;;;;;16.77;12.98;;;;;;;;;;5054080;28;20053;-68
2021/09/15 00:09:22;;;;;;;16.65;12.13;;;;;;;;;;5053932;28;20071;-67
2021/09/15 00:11:49;;;;;;;15.75;12.00;;;;;;;;;;5054347;28;20048;-67
2021/09/15 00:14:16;;;;;;;17.98;13.35;;;;;;;;;;5053691;28;20132;-67
2021/09/15 00:16:43;;;;;;;18.23;12.50;;;;;;;;;;5053821;28;20093;-67
2021/09/15 00:19:10;;;;;;;18.52;13.05;;;;;;;;;;5054050;28;20057;-67
2021/09/15 00:21:37;;;;;;;17.52;13.77;;;;;;;;;;5053787;28;20091;-67
2021/09/15 00:24:05;;;;;;;17.23;12.75;;;;;;;;;;5053477;28;20436;-66
2021/09/15 00:26:33;;;;;;;16.48;12.05;;;;;;;;;;5053614;28;20049;-67
2021/09/15 00:29:00;;;;;;;15.85;12.23;;;;;;;;;;5053545;28;20053;-67
2021/09/15 00:31:27;;;;;;;19.52;12.18;;;;;;;;;;5053652;28;20411;-67
2021/09/15 00:33:54;;;;;;;15.77;12.30;;;;;;;;;;5053457;28;20049;-66
2021/09/15 00:36:21;;;;;;;18.10;13.30;;;;;;;;;;5053488;28;20056;-66
2021/09/15 00:38:48;;;;;;;18.17;13.20;;;;;;;;;;5053491;28;20057;-67
2021/09/15 00:41:15;;;;;;;15.98;12.35;;;;;;;;;;5053209;28;20056;-67
2021/09/15 00:44:06;;;;;;;14.48;11.88;;;;;;;;;;5053418;28;20053;-66
2021/09/15 00:46:33;;;;;;;15.68;11.77;;;;;;;;;;5053229;28;20059;-66
2021/09/15 00:49:00;;;;;;;16.90;12.02;;;;;;;;;;5052603;28;20079;-66
2021/09/15 00:51:28;;;;;;;16.75;12.25;;;;;;;;;;5052857;28;20056;-67
2021/09/15 00:53:55;;;;;;;16.63;12.82;;;;;;;;;;5052942;28;20461;-66
2021/09/15 00:56:22;;;;;;;17.15;11.63;;;;;;;;;;5052942;28;20056;-66
2021/09/15 00:58:49;;;;;;;15.48;11.90;;;;;;;;;;5053013;28;20041;-66
2021/09/15 01:01:17;;;;;;;14.90;11.57;;;;;;;;;;5052904;28;20048;-67
2021/09/15 01:03:44;;;;;;;15.93;12.25;;;;;;;;;;5052825;28;20055;-67
2021/09/15 01:06:12;;;;;;;16.90;11.55;;;;;;;;;;5052929;28;20070;-67
2021/09/15 01:08:39;;;;;;;15.02;12.23;;;;;;;;;;5052945;28;20099;-67
2021/09/15 01:11:06;;;;;;;18.52;12.48;;;;;;;;;;5052698;28;20410;-67
2021/09/15 01:13:33;;;;;;;15.57;12.25;;;;;;;;;;5052690;28;20053;-68
2021/09/15 01:16:00;;;;;;;14.77;12.50;;;;;;;;;;5052664;28;20064;-67
2021/09/15 01:18:29;;;;;;;18.02;12.32;;;;;;;;;;5052830;28;20142;-67
2021/09/15 01:20:57;;;;;;;15.88;11.85;;;;;;;;;;5052565;28;20417;-67
2021/09/15 01:23:24;;;;;;;17.63;12.95;;;;;;;;;;5052534;28;20131;-67
2021/09/15 01:25:51;;;;;;;15.15;11.43;;;;;;;;;;5052433;28;20047;-67
2021/09/15 01:28:19;;;;;;;17.70;12.15;;;;;;;;;;5051444;28;20155;-67
2021/09/15 01:30:46;;;;;;;16.45;12.48;;;;;;;;;;5030910;28;20406;-67
2021/09/15 01:33:15;;;;;;;14.82;11.20;;;;;;;;;;5032467;28;20050;-68
2021/09/15 01:35:43;;;;;;;14.98;11.73;;;;;;;;;;5032360;28;20532;-67
2021/09/15 01:38:11;;;;;;;16.30;12.32;;;;;;;;;;5032728;28;20052;-68
2021/09/15 01:40:39;;;;;;;16.38;11.80;;;;;;;;;;5032349;28;20041;-68
2021/09/15 01:43:06;;;;;;;16.90;12.27;;;;;;;;;;5032322;28;20050;-68
2021/09/15 01:45:34;;;;;;;16.80;12.30;;;;;;;;;;5032156;28;20053;-67
2021/09/15 01:48:01;;;;;;;16.35;11.85;;;;;;;;;;5032279;28;20140;-67
2021/09/15 01:50:28;;;;;;;17.17;12.77;;;;;;;;;;5032162;28;20056;-67
2021/09/15 01:52:55;;;;;;;15.55;12.23;;;;;;;;;;5032188;28;20418;-67
2021/09/15 01:55:25;;;;;;;16.58;12.25;;;;;;;;;;5031900;28;20487;-68
2021/09/15 01:57:52;;;;;;;16.48;13.02;;;;;;;;;;5032476;28;20053;-67
2021/09/15 02:00:19;;;;;;;19.38;13.52;;;;;;;;;;5031654;28;20053;-67
2021/09/15 02:02:48;;;;;;;18.58;12.40;;;;;;;;;;5037784;28;20046;-67
2021/09/15 02:05:15;;;;;;;17.30;12.13;;;;;;;;;;5052150;28;20049;-67
2021/09/15 02:07:42;;;;;;;15.77;11.63;;;;;;;;;;5051892;28;20056;-67
2021/09/15 02:10:11;;;;;;;17.70;12.43;;;;;;;;;;5051661;28;20052;-67
2021/09/15 02:12:41;;;;;;;17.33;12.00;;;;;;;;;;5050868;28;20045;-67
2021/09/15 02:15:10;;;;;;;14.60;11.57;;;;;;;;;;5051769;28;20053;-67
2021/09/15 02:17:38;;;;;;;15.90;12.77;;;;;;;;;;5051911;28;20065;-67
2021/09/15 02:20:06;;;;;;;15.95;11.57;;;;;;;;;;5051845;28;20057;-67
2021/09/15 02:22:33;;;;;;;17.67;12.73;;;;;;;;;;5051802;28;20518;-67
2021/09/15 02:25:00;;;;;;;16.83;12.80;;;;;;;;;;5051466;28;20045;-67
2021/09/15 02:27:27;;;;;;;16.98;12.68;;;;;;;;;;5051796;28;20080;-68
2021/09/15 02:29:55;;;;;;;16.98;12.13;;;;;;;;;;5051599;28;20061;-67
2021/09/15 02:32:22;;;;;;;18.33;12.35;;;;;;;;;;5051670;28;20517;-67
2021/09/15 02:34:49;;;;;;;15.23;11.80;;;;;;;;;;5051397;28;20065;-67
2021/09/15 02:37:16;;;;;;;16.13;12.35;;;;;;;;;;5051287;28;20072;-67
2021/09/15 02:39:43;;;;;;;16.27;12.10;;;;;;;;;;5051522;28;20387;-68
2021/09/15 02:42:10;;;;;;;17.20;12.10;;;;;;;;;;5051704;28;20058;-68
2021/09/15 02:44:37;;;;;;;15.80;12.10;;;;;;;;;;5051478;28;20045;-67
2021/09/15 02:47:05;;;;;;;16.25;12.77;;;;;;;;;;5051592;28;20060;-68
2021/09/15 02:49:32;;;;;;;15.52;12.23;;;;;;;;;;5051324;28;20490;-67
2021/09/15 02:51:59;;;;;;;17.60;12.65;;;;;;;;;;5051404;28;20410;-67
2021/09/15 02:54:26;;;;;;;16.50;12.80;;;;;;;;;;5051518;28;20045;-68
2021/09/15 02:56:53;;;;;;;17.38;12.63;;;;;;;;;;5051396;28;20517;-67
2021/09/15 02:59:20;;;;;;;16.42;12.60;;;;;;;;;;5051735;28;20486;-68
2021/09/15 03:01:47;;;;;;;15.85;12.18;;;;;;;;;;5051407;28;20045;-67
2021/09/15 03:04:15;;;;;;;16.67;12.85;;;;;;;;;;5051110;28;20060;-67
2021/09/15 03:06:42;;;;;;;13.80;11.23;;;;;;;;;;5051446;28;20052;-68
2021/09/15 03:09:09;;;;;;;17.23;13.48;;;;;;;;;;5051460;28;20486;-67
2021/09/15 03:11:36;;;;;;;15.02;12.13;;;;;;;;;;5051289;28;20045;-67
2021/09/15 03:14:03;;;;;;;15.63;12.15;;;;;;;;;;5054088;28;20048;-67
2021/09/15 03:16:30;;;;;;;17.48;12.48;;;;;;;;;;5054795;28;20056;-67
2021/09/15 03:18:57;;;;;;;17.50;12.48;;;;;;;;;;5054912;28;20049;-67
2021/09/15 03:21:26;;;;;;;17.33;12.13;;;;;;;;;;5054894;28;20054;-67
2021/09/15 03:23:53;;;;;;;14.35;11.85;;;;;;;;;;5054960;28;20057;-67
2021/09/15 03:26:20;;;;;;;17.10;12.18;;;;;;;;;;5054748;28;20052;-68
2021/09/15 03:28:47;;;;;;;15.40;11.98;;;;;;;;;;5054755;28;20417;-67
2021/09/15 03:31:14;;;;;;;15.40;11.93;;;;;;;;;;5054417;28;20057;-67
2021/09/15 03:33:41;;;;;;;14.65;11.57;;;;;;;;;;5054512;28;20053;-69
2021/09/15 03:36:09;;;;;;;18.15;13.35;;;;;;;;;;5054548;28;20060;-67
2021/09/15 03:38:37;;;;;;;16.60;12.40;;;;;;;;;;5054584;28;20060;-67
2021/09/15 03:41:04;;;;;;;17.38;13.05;;;;;;;;;;5054402;28;20055;-67
2021/09/15 03:43:31;;;;;;;18.27;12.70;;;;;;;;;;5054385;28;20052;-67
2021/09/15 03:46:01;;;;;;;17.75;13.05;;;;;;;;;;5054418;28;20498;-67
2021/09/15 03:48:28;;;;;;;17.50;13.30;;;;;;;;;;5054476;28;20064;-67
2021/09/15 03:50:55;;;;;;;18.05;13.73;;;;;;;;;;5054308;28;20053;-67
2021/09/15 03:53:22;;;;;;;19.17;13.35;;;;;;;;;;5054204;28;20045;-67
2021/09/15 03:55:50;;;;;;;18.15;12.55;;;;;;;;;;5054679;28;20059;-67
2021/09/15 03:58:17;;;;;;;19.42;14.55;;;;;;;;;;5054425;28;20056;-67
2021/09/15 04:00:46;;;;;;;21.65;13.88;;;;;;;;;;5054102;28;20434;-67
2021/09/15 04:03:13;;;;;;;18.42;13.15;;;;;;;;;;5053789;28;20484;-68
2021/09/15 04:05:40;;;;;;;17.98;13.10;;;;;;;;;;5054373;28;20068;-68
2021/09/15 04:08:06;;;;;;;16.33;13.00;;;;;;;;;;5054311;28;20048;-67
2021/09/15 04:10:34;;;;;;;20.15;13.07;;;;;;;;;;5053916;28;20421;-67
2021/09/15 04:13:02;;;;;;;16.73;12.93;;;;;;;;;;5053647;28;20045;-69
2021/09/15 04:15:29;;;;;;;18.77;13.63;;;;;;;;;;5053700;28;20045;-69
2021/09/15 04:17:56;;;;;;;17.23;12.93;;;;;;;;;;5053574;28;20093;-67
2021/09/15 04:20:23;;;;;;;20.15;13.07;;;;;;;;;;5054092;28;20413;-67
2021/09/15 04:22:50;;;;;;;17.55;12.98;;;;;;;;;;5053574;28;20056;-67
2021/09/15 04:33:32;;;;;;;17.45;12.25;;;;;;;;;;5053562;28;20052;-69
2021/09/15 04:35:59;;;;;;;17.50;13.40;;;;;;;;;;5053568;28;20053;-68
2021/09/15 04:38:25;;;;;;;17.48;12.07;;;;;;;;;;5053400;28;20049;-68
2021/09/15 04:40:52;;;;;;;16.38;12.60;;;;;;;;;;5053354;28;20055;-69
2021/09/15 04:43:21;;;;;;;17.23;12.68;;;;;;;;;;5053330;28;20053;-68
2021/09/15 04:45:48;;;;;;;16.50;12.13;;;;;;;;;;5053618;28;20045;-69
2021/09/15 04:48:14;;;;;;;17.88;13.02;;;;;;;;;;5053343;28;20072;-69
2021/09/15 04:50:41;;;;;;;17.30;12.38;;;;;;;;;;5054033;28;20478;-69
2021/09/15 04:53:08;;;;;;;17.17;13.77;;;;;;;;;;5053537;28;20049;-69
2021/09/15 04:55:35;;;;;;;18.20;12.57;;;;;;;;;;5053157;28;20521;-69
2021/09/15 04:58:02;;;;;;;17.67;13.07;;;;;;;;;;5053039;28;20513;-69
2021/09/15 05:00:30;;;;;;;18.55;12.27;;;;;;;;;;5052991;28;20067;-69
2021/09/15 05:02:57;;;;;;;17.75;12.82;;;;;;;;;;5052881;28;20075;-68
2021/09/15 05:05:24;;;;;;;19.48;13.18;;;;;;;;;;5053096;28;20406;-68
2021/09/15 05:07:51;;;;;;;18.10;13.00;;;;;;;;;;5052830;28;20045;-68
2021/09/15 05:10:19;;;;;;;17.85;12.82;;;;;;;;;;5052763;28;20516;-69
2021/09/15 05:12:46;;;;;;;17.60;12.52;;;;;;;;;;5053115;28;20190;-69
2021/09/15 05:15:13;;;;;;;17.67;13.32;;;;;;;;;;5032779;28;20056;-69
2021/09/15 05:17:41;;;;;;;21.13;13.70;;;;;;;;;;5032770;28;20495;-69
2021/09/15 05:20:09;;;;;;;20.98;15.07;;;;;;;;;;5032854;28;20045;-69
2021/09/15 05:22:36;;;;;;;19.90;13.77;;;;;;;;;;5032660;28;20601;-68
2021/09/15 05:25:03;;;;;;;19.15;14.38;;;;;;;;;;5032317;28;20055;-69
2021/09/15 05:27:30;;;;;;;19.05;13.82;;;;;;;;;;5032723;28;20410;-69
2021/09/15 05:29:57;;;;;;;20.80;14.38;;;;;;;;;;5032649;28;20053;-69
2021/09/15 05:32:24;;;;;;;19.08;14.18;;;;;;;;;;5032496;28;20049;-69
2021/09/15 05:34:53;;;;;;;20.33;14.10;;;;;;;;;;5032209;28;20495;-69
2021/09/15 05:37:20;;;;;;;18.17;13.68;;;;;;;;;;5032271;28;20061;-69
2021/09/15 05:39:47;;;;;;;20.58;16.02;;;;;;;;;;5032357;28;20049;-69
2021/09/15 05:42:13;;;;;;;21.45;14.55;;;;;;;;;;5032416;28;20490;-69
2021/09/15 05:44:40;;;;;;;24.42;15.18;;;;;;;;;;5032257;28;20045;-69
2021/09/15 05:47:07;;;;;;;19.75;13.65;;;;;;;;;;5032256;28;20506;-69
2021/09/15 05:49:34;;;;;;;17.42;12.98;;;;;;;;;;5032690;28;20400;-69
2021/09/15 05:52:03;;;;;;;19.52;14.05;;;;;;;;;;5032183;28;20050;-69
2021/09/15 05:54:30;;;;;;;19.55;13.57;;;;;;;;;;5032215;28;20056;-69
2021/09/15 05:56:57;;;;;;;18.58;14.13;;;;;;;;;;5032396;28;20055;-69
2021/09/15 05:59:24;;;;;;;21.52;13.45;;;;;;;;;;5032219;28;20506;-69
2021/09/15 06:01:51;;;;;;;21.08;12.80;;;;;;;;;;5032030;28;20434;-69
2021/09/15 06:04:18;;;;;;;23.65;13.35;;;;;;;;;;5049867;28;20079;-69
2021/09/15 06:06:45;;;;;;;18.10;13.15;;;;;;;;;;5052326;28;20516;-69
2021/09/15 06:09:13;;;;;;;17.65;12.38;;;;;;;;;;5052095;28;20462;-69
2021/09/15 06:11:40;;;;;;;22.05;12.35;;;;;;;;;;5052446;28;20049;-69
2021/09/15 06:14:07;;;;;;;19.90;12.93;;;;;;;;;;5051937;28;20048;-69
2021/09/15 06:16:34;;;;;;;16.35;11.68;;;;;;;;;;5052020;28;20060;-69
2021/09/15 06:19:01;;;;;;;22.33;11.50;;;;;;;;;;5051655;28;20059;-69
2021/09/15 06:21:28;;;;;;;18.65;11.35;;;;;;;;;;5051889;28;20504;-69
2021/09/15 06:23:55;;;;;;;18.85;13.02;;;;;;;;;;5051674;28;20049;-69
2021/09/15 06:26:25;;;;;;;21.27;13.13;;;;;;;;;;5051503;28;20059;-69
2021/09/15 06:28:52;;;;;;;20.23;13.48;;;;;;;;;;5051817;28;20053;-69
2021/09/15 06:31:19;;;;;;;20.65;13.32;;;;;;;;;;5052004;28;20060;-68
2021/09/15 06:33:47;;;;;;;18.58;11.93;;;;;;;;;;5051190;28;20053;-69
2021/09/15 06:36:15;;;;;;;20.13;12.77;;;;;;;;;;5051687;28;20049;-69
2021/09/15 06:38:42;;;;;;;21.50;11.73;;;;;;;;;;5051413;28;20049;-69
2021/09/15 06:41:09;;;;;;;16.77;11.85;;;;;;;;;;5051731;28;20059;-69
2021/09/15 06:43:38;;;;;;;21.58;13.77;;;;;;;;;;5051858;28;20057;-69
2021/09/15 06:46:05;;;;;;;18.70;11.20;;;;;;;;;;5051665;28;20342;-68
2021/09/15 06:48:32;;;;;;;17.40;12.70;;;;;;;;;;5055461;28;20135;-69
2021/09/15 06:50:59;;;;;;;19.10;12.02;;;;;;;;;;5055617;28;20110;-70
2021/09/15 06:53:26;;;;;;;17.85;11.43;;;;;;;;;;5055091;28;20045;-70
2021/09/15 06:55:53;;;;;;;16.80;11.80;;;;;;;;;;5055475;28;20406;-70
2021/09/15 06:58:20;;;;;;;14.98;11.18;;;;;;;;;;5055189;28;20053;-69
2021/09/15 07:00:48;;;;;;;20.25;12.13;;;;;;;;;;5055448;28;20056;-69
2021/09/15 07:03:15;;;;;;;19.13;11.93;;;;;;;;;;5054980;28;20056;-69
2021/09/15 07:05:44;;;;;;;17.70;11.15;;;;;;;;;;5053212;28;20410;-69
2021/09/15 07:08:11;;;;;;;17.45;12.00;;;;;;;;;;5054353;28;20450;-69
2021/09/15 07:10:40;;;;;;;17.70;12.10;;;;;;;;;;5053197;28;20091;-69
2021/09/15 07:13:07;;;;;;;16.02;11.20;;;;;;;;;;5053463;28;20057;-69
2021/09/15 07:15:34;;;;;;;23.17;12.45;;;;;;;;;;5033118;28;20442;-69
2021/09/15 07:18:03;;;;;;;16.77;11.65;;;;;;;;;;5033023;28;20056;-69
2021/09/15 07:20:30;;;;;;;22.83;16.55;;;;;;;;;;5032993;28;20147;-69
2021/09/15 07:22:57;;;;;;;21.85;15.85;;;;;;;;;;5033277;28;20059;-69
2021/09/15 07:25:24;;;;;;;18.75;12.48;;;;;;;;;;5032997;28;20132;-69
2021/09/15 07:27:51;;;;;;;21.17;12.63;;;;;;;;;;5032617;28;20075;-69
2021/09/15 07:30:18;;;;;;;17.38;12.05;;;;;;;;;;5032695;28;20055;-69
2021/09/15 07:32:45;;;;;;;18.63;12.48;;;;;;;;;;5032962;28;20085;-69
2021/09/15 07:35:14;;;;;;;24.60;15.10;;;;;;;;;;5032312;28;20434;-69
2021/09/15 07:37:41;;;;;;;18.35;12.98;;;;;;;;;;5033055;28;20046;-69
2021/09/15 07:40:10;;;;;;;19.33;13.18;;;;;;;;;;5049754;28;20517;-69
2021/09/15 07:42:37;;;;;;;19.60;13.27;;;;;;;;;;5052776;28;20493;-69
2021/09/15 07:45:06;;;;;;;19.85;12.13;;;;;;;;;;5052564;28;20065;-69
2021/09/15 07:47:33;;;;;;;18.23;11.77;;;;;;;;;;5052133;28;20136;-69
2021/09/15 07:50:00;;;;;;;18.25;12.98;;;;;;;;;;5051768;28;20045;-69
2021/09/15 07:52:29;;;;;;;17.52;12.80;;;;;;;;;;5052614;28;20610;-69
2021/09/15 07:54:55;;;;;;;23.50;13.95;;;;;;;;;;5052363;28;20055;-69
2021/09/15 07:57:22;;;;;;;18.25;12.60;;;;;;;;;;5052053;28;20045;-69
2021/09/15 07:59:49;;;;;;;16.02;11.73;;;;;;;;;;5051542;28;20127;-69
2021/09/15 08:02:16;;;;;;;15.57;11.60;;;;;;;;;;5051843;28;20048;-69
2021/09/15 08:04:43;;;;;;;20.48;14.00;;;;;;;;;;5052088;28;20063;-69
2021/09/15 08:07:10;;;;;;;23.45;12.57;;;;;;;;;;5051910;28;20052;-69
2021/09/15 08:09:38;;;;;;;22.75;15.10;;;;;;;;;;5052216;28;20084;-69
2021/09/15 08:12:06;;;;;;;20.30;13.50;;;;;;;;;;5051992;28;20044;-69
2021/09/15 08:14:33;;;;;;;22.20;14.40;;;;;;;;;;5051756;28;20049;-69
2021/09/15 08:17:00;;;;;;;18.60;14.48;;;;;;;;;;5052256;28;20390;-72
2021/09/15 08:19:27;;;;;;;23.88;15.07;;;;;;;;;;5051907;28;20049;-74
2021/09/15 08:21:54;;;;;;;27.23;17.40;;;;;;;;;;5052479;28;20438;-75
2021/09/15 08:24:21;;;;;;;24.30;16.67;;;;;;;;;;5052174;28;20446;-70
2021/09/15 08:26:50;;;;;;;25.88;16.98;;;;;;;;;;5052357;28;20414;-73
2021/09/15 08:29:17;;;;;;;23.65;15.95;;;;;;;;;;5051478;28;20057;-73
2021/09/15 08:31:44;;;;;;;37.80;25.90;;;;;;;;;;5051901;28;20049;-72
2021/09/15 08:34:11;;;;;;;26.85;16.92;;;;;;;;;;5051308;28;20048;-69
2021/09/15 08:36:38;;;;;;;21.80;15.20;;;;;;;;;;5051426;28;20048;-70
2021/09/15 08:39:05;;;;;;;27.75;18.58;;;;;;;;;;5051254;28;20138;-71
2021/09/15 08:41:32;;;;;;;20.35;14.68;;;;;;;;;;5051638;28;20136;-68
2021/09/15 08:44:00;;;;;;;21.27;13.55;;;;;;;;;;5050929;28;20525;-66
2021/09/15 08:46:29;;;;;;;18.88;13.73;;;;;;;;;;5050975;28;20060;-66
2021/09/15 08:48:59;;;;;;;20.48;14.63;;;;;;;;;;5051241;28;20052;-65
2021/09/15 08:51:26;;;;;;;24.10;16.73;;;;;;;;;;5051731;28;20053;-67
2021/09/15 08:53:54;;;;;;;26.40;18.80;;;;;;;;;;5050995;28;20056;-65
2021/09/15 08:56:22;;;;;;;22.67;15.77;;;;;;;;;;5050917;28;20071;-65
2021/09/15 08:58:49;;;;;;;20.73;14.10;;;;;;;;;;5051146;28;20556;-64
2021/09/15 09:01:19;;;;;;;22.63;16.42;;;;;;;;;;5050840;28;20506;-64
2021/09/15 09:03:51;;;;;;;;;;;;;;;;;;5051314;28;20056;-71
2021/09/15 09:06:21;;;;;;;22.63;14.45;;;;;;;;;;5051372;28;19972;-70
2021/09/15 09:08:53;;;;;;;20.60;15.00;;;;;;;;;;5050534;28;20057;-71
2021/09/15 09:11:21;;;;;;;26.33;17.10;;;;;;;;;;5049736;28;20057;-71
2021/09/15 09:13:51;;;;;;;21.40;14.55;;;;;;;;;;5050768;28;20148;-70
2021/09/15 09:16:22;;;;;;;19.73;14.33;;;;;;;;;;5051053;28;20052;-71
2021/09/15 09:19:04;;;;;;;20.13;14.57;;;;;;;;;;5050870;28;20055;-69
2021/09/15 09:21:34;;;;;;;19.77;12.95;;;;;;;;;;5050582;28;20053;-71
2021/09/15 09:24:06;;;;;;;18.77;13.73;;;;;;;;;;5050498;28;20461;-70
2021/09/15 09:26:48;;;;;;;23.08;14.65;;;;;;;;;;5050939;28;20136;-70
2021/09/15 09:29:16;;;;;;;21.50;15.05;;;;;;;;;;5051026;28;20060;-71
2021/09/15 09:31:58;;;;;;;21.67;14.48;;;;;;;;;;5050578;28;20488;-71
2021/09/15 09:34:25;;;;;;;25.85;15.55;;;;;;;;;;5050278;28;20051;-71
2021/09/15 09:37:03;;;;;;;18.88;13.07;;;;;;;;;;5050374;28;20098;-71
2021/09/15 09:39:41;;;;;;;21.60;14.85;;;;;;;;;;5050138;28;20053;-71
2021/09/15 09:42:32;;;;;;;20.38;14.20;;;;;;;;;;5050314;28;20056;-72
2021/09/15 09:45:12;;;;;;;23.05;13.80;;;;;;;;;;5050702;28;20083;-71
2021/09/15 09:47:41;;;;;;;23.70;15.65;;;;;;;;;;5050388;28;20052;-71
2021/09/15 09:50:10;;;;;;;20.10;13.40;;;;;;;;;;5049604;28;20053;-69
2021/09/15 09:52:57;;;;;;;20.52;14.93;;;;;;;;;;5050145;28;20110;-71
2021/09/15 09:55:24;;;;;;;17.70;13.63;;;;;;;;;;5050283;28;20212;-71
2021/09/15 09:57:54;;;;;;;20.15;13.57;;;;;;;;;;5050519;28;20529;-71
2021/09/15 10:00:22;;;;;;;;;;;;;;;;;;5050621;28;20056;-71
2021/09/15 10:02:50;;;;;;;18.20;12.00;;;;;;;;;;5049969;28;19921;-71
2021/09/15 10:05:18;;;;;;;20.88;14.55;;;;;;;;;;5049777;28;20458;-71
2021/09/15 10:07:46;;;;;;;21.15;15.68;;;;;;;;;;5049482;28;20049;-72
2021/09/15 10:10:14;;;;;;;20.77;13.75;;;;;;;;;;5049902;28;20049;-71
2021/09/15 10:12:41;;;;;;;21.00;13.80;;;;;;;;;;5050250;28;20053;-71
2021/09/15 10:15:10;;;;;;;20.10;14.88;;;;;;;;;;5049629;28;20447;-72
2021/09/15 10:17:42;;;;;;;20.80;14.02;;;;;;;;;;5050240;28;20049;-72
2021/09/15 10:20:14;;;;;;;20.17;12.68;;;;;;;;;;5050317;28;20482;-71
2021/09/15 10:22:46;;;;;;;21.25;14.70;;;;;;;;;;5049838;28;20114;-70
2021/09/15 10:25:13;;;;;;;23.45;15.55;;;;;;;;;;5066680;22;20052;-69
2021/09/15 10:27:59;;;;;;;22.60;16.02;;;;;;;;;;5009887;28;20578;-69
2021/09/15 10:30:41;;;;;;;21.95;16.08;;;;;;;;;;5009612;28;20050;-70
2021/09/15 10:33:08;;;;;;;22.10;15.57;;;;;;;;;;5009762;28;20045;-71
2021/09/15 10:35:47;;;;;;;23.40;15.82;;;;;;;;;;5009797;28;20042;-70
2021/09/15 10:38:15;;;;;;;33.17;15.37;;;;;;;;;;5009659;28;20042;-69
2021/09/15 10:40:44;;;;;;;25.65;17.88;;;;;;;;;;5009877;28;20326;-69
2021/09/15 10:43:42;;;;;;;24.83;17.13;;;;;;;;;;5009288;28;20100;-69
2021/09/15 10:46:23;;;;;;;26.70;17.52;;;;;;;;;;4994772;28;20293;-70
2021/09/15 10:49:46;;;;;;;23.02;17.23;;;;;;;;;;5010602;28;20054;-72
2021/09/15 10:52:31;;;;;;;23.35;16.42;;;;;;;;;;5010027;28;20103;-70
2021/09/15 10:54:59;;;;;;;24.80;16.45;;;;;;;;;;5009162;28;20050;-70
2021/09/15 10:57:35;;;;;;;25.35;16.63;;;;;;;;;;5009068;28;20413;-70
2021/09/15 11:00:07;;;;;;;27.80;17.08;;;;;;;;;;5009235;28;20056;-70
2021/09/15 11:02:35;;;;;;;26.13;17.60;;;;;;;;;;5009519;28;20539;-70
2021/09/15 11:05:35;;;;;;;26.38;16.95;;;;;;;;;;5009558;28;20042;-70
2021/09/15 11:08:04;;;;;;;22.23;15.15;;;;;;;;;;5009991;28;20053;-70
2021/09/15 11:10:42;;;;;;;23.52;15.75;;;;;;;;;;5009563;28;20061;-69
2021/09/15 11:13:11;;;;;;;25.30;16.35;;;;;;;;;;5012346;28;20042;-69
2021/09/15 11:15:41;;;;;;;21.73;15.05;;;;;;;;;;5029280;28;20046;-70
2021/09/15 11:18:08;;;;;;;28.23;15.95;;;;;;;;;;5028908;28;20085;-69
2021/09/15 11:20:37;;;;;;;21.90;15.75;;;;;;;;;;5028709;28;20051;-69
2021/09/15 11:23:08;;;;;;;22.35;16.08;;;;;;;;;;5028979;28;20057;-71
2021/09/15 11:25:35;;;;;;;21.77;13.57;;;;;;;;;;5029086;28;20064;-69
2021/09/15 11:28:10;;;;;;;18.52;13.95;;;;;;;;;;5029032;28;20045;-69
2021/09/15 11:30:39;;;;;;;18.35;12.80;;;;;;;;;;5028977;28;20059;-71
2021/09/15 11:33:06;;;;;;;21.52;15.35;;;;;;;;;;5029272;28;20091;-70
2021/09/15 11:35:35;;;;;;;19.80;13.73;;;;;;;;;;5032691;28;20056;-70
2021/09/15 11:38:03;;;;;;;19.30;14.15;;;;;;;;;;5032772;28;20119;-69
2021/09/15 11:40:33;;;;;;;26.85;17.05;;;;;;;;;;5032278;28;20053;-70
2021/09/15 11:43:05;;;;;;;20.45;13.82;;;;;;;;;;5032727;28;20050;-70
2021/09/15 11:45:33;;;;;;;20.33;14.23;;;;;;;;;;5032286;28;20051;-70
2021/09/15 11:48:00;;;;;;;19.35;14.68;;;;;;;;;;5032452;28;20422;-70
2021/09/15 11:50:29;;;;;;;19.30;14.73;;;;;;;;;;5032209;28;20136;-70
2021/09/15 11:53:01;;;;;;;18.05;13.63;;;;;;;;;;5032341;28;20045;-70
2021/09/15 11:55:29;;;;;;;19.83;14.85;;;;;;;;;;5031677;28;20065;-71
2021/09/15 11:58:01;;;;;;;19.83;12.55;;;;;;;;;;5032176;28;20050;-70
2021/09/15 12:00:29;;;;;;;21.50;12.88;;;;;;;;;;5032172;28;20554;-70
2021/09/15 12:02:59;;;;;;;18.40;13.20;;;;;;;;;;5025295;28;20052;-70
2021/09/15 12:05:27;;;;;;;22.40;15.13;;;;;;;;;;5011982;28;20046;-70
2021/09/15 12:07:55;;;;;;;16.50;12.18;;;;;;;;;;5013273;28;20050;-71
2021/09/15 12:10:23;;;;;;;18.38;14.40;;;;;;;;;;5013480;28;20483;-71
2021/09/15 12:12:51;;;;;;;19.15;14.18;;;;;;;;;;5013895;28;20112;-70
2021/09/15 12:15:19;;;;;;;25.80;16.00;;;;;;;;;;5033139;28;20058;-72
2021/09/15 12:18:04;;;;;;;19.90;14.50;;;;;;;;;;5033712;28;20049;-71
2021/09/15 12:20:43;;;;;;;23.35;15.45;;;;;;;;;;5033130;28;20045;-72
2021/09/15 12:23:11;;;;;;;18.50;13.80;;;;;;;;;;5033291;28;20052;-71
2021/09/15 12:25:38;;;;;;;20.33;14.30;;;;;;;;;;5033673;28;20058;-72
2021/09/15 12:28:06;;;;;;;19.65;14.50;;;;;;;;;;5033851;28;20414;-71
2021/09/15 12:30:35;;;;;;;21.08;16.83;;;;;;;;;;5033759;28;20499;-72
2021/09/15 12:33:02;;;;;;;23.02;16.13;;;;;;;;;;5033218;28;20049;-72
2021/09/15 12:35:34;;;;;;;28.77;20.00;;;;;;;;;;5033600;28;20056;-72
2021/09/15 12:38:03;;;;;;;21.52;16.33;;;;;;;;;;5033716;28;20046;-72
2021/09/15 12:40:30;;;;;;;22.02;14.88;;;;;;;;;;5033063;28;20045;-73
2021/09/15 12:43:00;;;;;;;22.45;16.42;;;;;;;;;;5033236;28;20079;-72
2021/09/15 12:45:28;;;;;;;20.75;15.60;;;;;;;;;;5033116;28;20049;-72
2021/09/15 12:47:56;;;;;;;26.52;15.40;;;;;;;;;;5033245;28;20159;-72
2021/09/15 12:50:26;;;;;;;25.55;17.10;;;;;;;;;;5033604;28;20423;-72
2021/09/15 12:53:00;;;;;;;25.23;18.17;;;;;;;;;;5033809;28;20059;-71
2021/09/15 12:55:28;;;;;;;21.98;16.13;;;;;;;;;;5032761;28;20755;-72
2021/09/15 12:57:57;;;;;;;26.65;18.85;;;;;;;;;;5033045;28;20544;-72
2021/09/15 13:00:25;;;;;;;35.83;24.25;;;;;;;;;;5031904;28;20396;-72
2021/09/15 13:02:55;;;;;;;26.38;18.63;;;;;;;;;;5026717;28;20069;-72
2021/09/15 13:05:24;;;;;;;26.53;19.13;;;;;;;;;;5012893;28;20471;-72
2021/09/15 13:07:52;;;;;;;28.23;19.55;;;;;;;;;;5012770;28;20050;-72
2021/09/15 13:10:19;;;;;;;25.67;17.85;;;;;;;;;;5012394;28;20056;-72
2021/09/15 13:12:46;;;;;;;23.90;16.52;;;;;;;;;;5012345;28;20126;-71
2021/09/15 13:15:13;;;;;;;30.17;20.17;;;;;;;;;;4992795;28;20046;-71
2021/09/15 13:17:40;;;;;;;31.88;20.08;;;;;;;;;;4992945;28;20057;-72
2021/09/15 13:20:10;;;;;;;29.95;21.08;;;;;;;;;;4992765;28;20530;-72
2021/09/15 13:22:38;;;;;;;28.27;18.08;;;;;;;;;;4993105;28;20050;-72
2021/09/15 13:25:12;;;;;;;25.25;17.20;;;;;;;;;;4992480;28;20070;-72
2021/09/15 13:27:42;;;;;;;32.42;21.40;;;;;;;;;;4993144;28;20073;-72
2021/09/15 13:30:19;;;;;;;32.05;21.60;;;;;;;;;;4993419;28;20078;-72
2021/09/15 13:32:46;;;;;;;29.00;22.08;;;;;;;;;;4992727;28;20042;-71
2021/09/15 13:35:13;;;;;;;28.20;20.55;;;;;;;;;;4992807;28;20046;-72
2021/09/15 13:37:44;;;;;;;31.92;22.73;;;;;;;;;;4992409;28;20072;-71
2021/09/15 13:40:14;;;;;;;24.10;17.95;;;;;;;;;;4992713;28;20042;-72
2021/09/15 13:42:41;;;;;;;31.50;20.67;;;;;;;;;;4992198;28;20050;-72
2021/09/15 13:45:13;;;;;;;35.55;19.80;;;;;;;;;;4991825;28;20442;-72
2021/09/15 13:47:44;;;;;;;26.58;16.73;;;;;;;;;;4992648;28;20050;-71
2021/09/15 13:50:19;;;;;;;26.83;17.52;;;;;;;;;;4992293;28;20078;-71
2021/09/15 13:52:51;;;;;;;24.17;17.77;;;;;;;;;;4992770;28;20078;-71
2021/09/15 13:55:23;;;;;;;23.65;16.73;;;;;;;;;;4992398;28;20046;-72
2021/09/15 13:57:50;;;;;;;24.25;17.17;;;;;;;;;;4991840;28;20569;-71
2021/09/15 14:00:20;;;;;;;25.52;16.35;;;;;;;;;;5019913;22;20076;-71
2021/09/15 14:02:49;;;;;;;25.60;18.45;;;;;;;;;;5032046;28;20049;-71
2021/09/15 14:05:16;;;;;;;27.17;18.75;;;;;;;;;;5031646;28;20049;-71
2021/09/15 14:07:48;;;;;;;29.75;20.17;;;;;;;;;;5032072;28;20049;-70
2021/09/15 14:10:24;;;;;;;26.77;18.10;;;;;;;;;;5032173;28;20049;-71
2021/09/15 14:12:51;;;;;;;24.27;18.52;;;;;;;;;;5032115;28;20617;-71
2021/09/15 14:15:21;;;;;;;24.20;17.35;;;;;;;;;;5031726;28;20532;-71
2021/09/15 14:17:51;;;;;;;;;;;;;;;;;;5032085;28;20052;-71
2021/09/15 14:20:21;;;;;;;24.73;16.55;;;;;;;;;;5031292;28;19932;-71
2021/09/15 14:22:51;;;;;;;23.08;17.05;;;;;;;;;;5031576;28;20123;-71
2021/09/15 14:25:23;;;;;;;23.27;17.10;;;;;;;;;;5031104;28;20053;-71
2021/09/15 14:27:50;;;;;;;22.50;16.58;;;;;;;;;;5031689;28;20050;-71
2021/09/15 14:30:21;;;;;;;20.95;16.05;;;;;;;;;;5031248;28;20050;-71
2021/09/15 14:32:51;;;;;;;20.98;15.48;;;;;;;;;;5031490;28;20054;-71
2021/09/15 14:35:21;;;;;;;21.58;14.35;;;;;;;;;;5031250;28;20084;-72
2021/09/15 14:37:48;;;;;;;17.75;13.65;;;;;;;;;;5031045;28;20069;-70